sensor_id;sensor_type;location;lat;lon;timestamp;pressure;altitude;pressure_sealevel;temperature;humidity
72857;BME280;62742;52.136;4.500;2023-08-31T00:01:02;100863.91;;;13.41;94.14
72857;BME280;62742;52.136;4.500;2023-08-31T00:03:32;100866.75;;;13.33;94.76
72857;BME280;62742;52.136;4.500;2023-08-31T00:06:01;100862.31;;;13.34;94.95
72857;BME280;62742;52.136;4.500;2023-08-31T00:08:34;100872.06;;;13.32;94.83
72857;BME280;62742;52.136;4.500;2023-08-31T00:11:01;100869.41;;;13.32;94.05
72857;BME280;62742;52.136;4.500;2023-08-31T00:13:27;100873.81;;;13.31;94.58
72857;BME280;62742;52.136;4.500;2023-08-31T00:15:56;100861.47;;;13.33;94.24
72857;BME280;62742;52.136;4.500;2023-08-31T00:18:23;100859.59;;;13.37;94.17
72857;BME280;62742;52.136;4.500;2023-08-31T00:20:51;100859.66;;;13.35;94.00
72857;BME280;62742;52.136;4.500;2023-08-31T00:23:17;100853.25;;;13.44;92.51
72857;BME280;62742;52.136;4.500;2023-08-31T00:25:46;100852.53;;;13.37;92.37
72857;BME280;62742;52.136;4.500;2023-08-31T00:28:14;100843.19;;;13.25;92.12
72857;BME280;62742;52.136;4.500;2023-08-31T00:30:44;100844.63;;;13.03;92.43
72857;BME280;62742;52.136;4.500;2023-08-31T00:33:12;100842.59;;;13.14;91.55
72857;BME280;62742;52.136;4.500;2023-08-31T00:35:39;100841.69;;;13.15;90.89
72857;BME280;62742;52.136;4.500;2023-08-31T00:38:10;100844.47;;;13.09;90.63
72857;BME280;62742;52.136;4.500;2023-08-31T00:40:42;100845.56;;;13.02;90.36
72857;BME280;62742;52.136;4.500;2023-08-31T00:43:13;100841.31;;;12.95;90.00
72857;BME280;62742;52.136;4.500;2023-08-31T00:45:51;100842.31;;;12.90;89.80
72857;BME280;62742;52.136;4.500;2023-08-31T00:48:25;100844.16;;;12.87;89.56
72857;BME280;62742;52.136;4.500;2023-08-31T00:50:52;100847.03;;;12.78;88.97
72857;BME280;62742;52.136;4.500;2023-08-31T00:53:19;100845.44;;;12.70;88.52
72857;BME280;62742;52.136;4.500;2023-08-31T00:55:47;100845.31;;;12.75;88.28
72857;BME280;62742;52.136;4.500;2023-08-31T00:58:14;100842.75;;;12.72;87.85
72857;BME280;62742;52.136;4.500;2023-08-31T01:03:39;100842.00;;;12.67;88.09
72857;BME280;62742;52.136;4.500;2023-08-31T01:11:59;100852.34;;;12.76;89.29
72857;BME280;62742;52.136;4.500;2023-08-31T01:14:45;100857.69;;;12.73;90.17
72857;BME280;62742;52.136;4.500;2023-08-31T01:17:20;100865.56;;;12.75;91.04
72857;BME280;62742;52.136;4.500;2023-08-31T01:19:51;100857.69;;;12.73;91.97
72857;BME280;62742;52.136;4.500;2023-08-31T01:25:31;100853.81;;;12.88;92.07
72857;BME280;62742;52.136;4.500;2023-08-31T01:27:59;100856.31;;;12.93;92.76
72857;BME280;62742;52.136;4.500;2023-08-31T01:30:29;100859.94;;;12.88;93.65
72857;BME280;62742;52.136;4.500;2023-08-31T01:32:57;100857.25;;;12.91;93.63
72857;BME280;62742;52.136;4.500;2023-08-31T01:35:25;100848.56;;;12.86;93.71
72857;BME280;62742;52.136;4.500;2023-08-31T01:37:56;100852.78;;;12.94;93.73
72857;BME280;62742;52.136;4.500;2023-08-31T01:40:35;100847.63;;;12.89;93.31
72857;BME280;62742;52.136;4.500;2023-08-31T01:43:11;100852.13;;;12.84;94.38
72857;BME280;62742;52.136;4.500;2023-08-31T01:45:38;100849.56;;;12.81;94.11
72857;BME280;62742;52.136;4.500;2023-08-31T01:48:07;100850.34;;;12.84;93.94
72857;BME280;62742;52.136;4.500;2023-08-31T01:50:34;100856.56;;;12.83;94.02
72857;BME280;62742;52.136;4.500;2023-08-31T01:53:00;100852.13;;;12.84;93.93
72857;BME280;62742;52.136;4.500;2023-08-31T01:55:26;100846.09;;;12.80;93.58
72857;BME280;62742;52.136;4.500;2023-08-31T01:57:54;100845.84;;;12.89;93.30
72857;BME280;62742;52.136;4.500;2023-08-31T02:00:20;100851.81;;;12.96;92.67
72857;BME280;62742;52.136;4.500;2023-08-31T02:02:47;100855.59;;;12.86;92.98
72857;BME280;62742;52.136;4.500;2023-08-31T02:05:14;100854.81;;;12.82;93.54
72857;BME280;62742;52.136;4.500;2023-08-31T02:07:40;100853.34;;;12.70;94.00
72857;BME280;62742;52.136;4.500;2023-08-31T02:10:07;100852.56;;;12.67;94.14
72857;BME280;62742;52.136;4.500;2023-08-31T02:12:34;100862.13;;;12.71;94.34
72857;BME280;62742;52.136;4.500;2023-08-31T02:15:05;100860.31;;;12.73;94.54
72857;BME280;62742;52.136;4.500;2023-08-31T02:17:34;100859.47;;;12.72;95.22
72857;BME280;62742;52.136;4.500;2023-08-31T02:20:01;100858.66;;;12.69;95.53
72857;BME280;62742;52.136;4.500;2023-08-31T02:22:34;100854.19;;;12.72;96.15
72857;BME280;62742;52.136;4.500;2023-08-31T02:25:04;100848.94;;;12.72;96.05
72857;BME280;62742;52.136;4.500;2023-08-31T02:27:31;100854.97;;;12.76;96.18
72857;BME280;62742;52.136;4.500;2023-08-31T02:29:58;100847.91;;;12.78;96.09
72857;BME280;62742;52.136;4.500;2023-08-31T02:32:24;100859.25;;;12.80;96.32
72857;BME280;62742;52.136;4.500;2023-08-31T02:34:51;100855.75;;;12.81;96.21
72857;BME280;62742;52.136;4.500;2023-08-31T02:37:17;100846.88;;;12.84;96.10
72857;BME280;62742;52.136;4.500;2023-08-31T02:39:44;100851.28;;;12.83;96.29
72857;BME280;62742;52.136;4.500;2023-08-31T02:42:10;100855.78;;;12.80;96.66
72857;BME280;62742;52.136;4.500;2023-08-31T02:44:37;100855.47;;;12.92;95.65
72857;BME280;62742;52.136;4.500;2023-08-31T02:47:03;100856.75;;;12.74;96.11
72857;BME280;62742;52.136;4.500;2023-08-31T02:49:30;100850.75;;;12.69;96.88
72857;BME280;62742;52.136;4.500;2023-08-31T02:51:56;100854.19;;;12.72;96.99
72857;BME280;62742;52.136;4.500;2023-08-31T02:54:26;100853.16;;;12.78;96.53
72857;BME280;62742;52.136;4.500;2023-08-31T02:56:52;100848.69;;;12.82;96.56
72857;BME280;62742;52.136;4.500;2023-08-31T02:59:19;100845.09;;;12.84;96.22
72857;BME280;62742;52.136;4.500;2023-08-31T03:01:45;100851.34;;;12.80;96.11
72857;BME280;62742;52.136;4.500;2023-08-31T03:04:13;100854.88;;;12.79;95.95
72857;BME280;62742;52.136;4.500;2023-08-31T03:06:39;100856.75;;;12.74;95.98
72857;BME280;62742;52.136;4.500;2023-08-31T03:09:06;100856.72;;;12.76;95.82
72857;BME280;62742;52.136;4.500;2023-08-31T03:11:33;100851.34;;;12.80;95.52
72857;BME280;62742;52.136;4.500;2023-08-31T03:13:59;100846.91;;;12.82;95.09
72857;BME280;62742;52.136;4.500;2023-08-31T03:16:26;100850.31;;;12.86;95.28
72857;BME280;62742;52.136;4.500;2023-08-31T03:18:52;100851.22;;;12.86;95.02
72857;BME280;62742;52.136;4.500;2023-08-31T03:21:19;100849.41;;;12.88;94.87
72857;BME280;62742;52.136;4.500;2023-08-31T03:23:46;100841.28;;;12.96;94.11
72857;BME280;62742;52.136;4.500;2023-08-31T03:26:13;100844.59;;;13.04;93.30
72857;BME280;62742;52.136;4.500;2023-08-31T03:28:39;100849.00;;;13.04;92.99
72857;BME280;62742;52.136;4.500;2023-08-31T03:31:06;100848.91;;;13.08;92.80
72857;BME280;62742;52.136;4.500;2023-08-31T03:33:36;100849.72;;;13.10;92.76
72857;BME280;62742;52.136;4.500;2023-08-31T03:36:03;100855.91;;;13.08;92.84
72857;BME280;62742;52.136;4.500;2023-08-31T03:38:31;100848.75;;;13.13;93.09
72857;BME280;62742;52.136;4.500;2023-08-31T03:40:58;100845.94;;;13.21;92.80
72857;BME280;62742;52.136;4.500;2023-08-31T03:43:24;100848.69;;;13.16;93.73
72857;BME280;62742;52.136;4.500;2023-08-31T03:45:55;100853.81;;;13.22;93.43
72857;BME280;62742;52.136;4.500;2023-08-31T03:48:25;100859.94;;;13.23;93.52
72857;BME280;62742;52.136;4.500;2023-08-31T03:50:53;100856.81;;;13.43;92.56
72857;BME280;62742;52.136;4.500;2023-08-31T03:53:20;100856.81;;;13.43;92.55
72857;BME280;62742;52.136;4.500;2023-08-31T03:55:47;100847.97;;;13.44;92.58
72857;BME280;62742;52.136;4.500;2023-08-31T03:58:14;100849.63;;;13.48;92.51
72857;BME280;62742;52.136;4.500;2023-08-31T04:00:40;100859.09;;;13.55;92.04
72857;BME280;62742;52.136;4.500;2023-08-31T04:03:09;100857.97;;;13.64;90.83
72857;BME280;62742;52.136;4.500;2023-08-31T04:05:35;100856.94;;;13.70;90.83
72857;BME280;62742;52.136;4.500;2023-08-31T04:08:02;100862.94;;;13.75;90.09
72857;BME280;62742;52.136;4.500;2023-08-31T04:10:30;100866.13;;;13.88;89.32
72857;BME280;62742;52.136;4.500;2023-08-31T04:12:58;100862.50;;;13.90;89.13
72857;BME280;62742;52.136;4.500;2023-08-31T04:15:24;100870.38;;;13.92;89.30
72857;BME280;62742;52.136;4.500;2023-08-31T04:17:51;100871.00;;;14.01;90.10
72857;BME280;62742;52.136;4.500;2023-08-31T04:20:17;100873.47;;;14.08;90.76
72857;BME280;62742;52.136;4.500;2023-08-31T04:22:44;100877.28;;;13.97;91.79
72857;BME280;62742;52.136;4.500;2023-08-31T04:25:10;100878.19;;;13.96;91.04
72857;BME280;62742;52.136;4.500;2023-08-31T04:27:37;100879.03;;;13.97;91.38
72857;BME280;62742;52.136;4.500;2023-08-31T04:30:06;100880.38;;;14.12;90.63
72857;BME280;62742;52.136;4.500;2023-08-31T04:32:33;100881.56;;;14.01;91.35
72857;BME280;62742;52.136;4.500;2023-08-31T04:35:03;100883.56;;;13.93;91.33
72857;BME280;62742;52.136;4.500;2023-08-31T04:37:34;100884.00;;;14.09;90.81
72857;BME280;62742;52.136;4.500;2023-08-31T04:40:00;100881.56;;;14.01;90.87
72857;BME280;62742;52.136;4.500;2023-08-31T04:42:28;100883.03;;;14.12;91.08
72857;BME280;62742;52.136;4.500;2023-08-31T04:44:55;100888.81;;;14.25;90.69
72857;BME280;62742;52.136;4.500;2023-08-31T04:47:22;100903.31;;;14.11;92.07
72857;BME280;62742;52.136;4.500;2023-08-31T04:49:48;100915.78;;;14.06;92.92
72857;BME280;62742;52.136;4.500;2023-08-31T04:52:15;100914.81;;;14.09;93.00
72857;BME280;62742;52.136;4.500;2023-08-31T04:54:41;100926.94;;;13.84;91.62
72857;BME280;62742;52.136;4.500;2023-08-31T04:57:08;100922.72;;;13.79;92.87
72857;BME280;62742;52.136;4.500;2023-08-31T04:59:36;100925.94;;;13.57;94.18
72857;BME280;62742;52.136;4.500;2023-08-31T05:02:02;100926.13;;;13.51;94.94
72857;BME280;62742;52.136;4.500;2023-08-31T05:04:29;100920.97;;;13.45;95.11
72857;BME280;62742;52.136;4.500;2023-08-31T05:06:56;100916.78;;;13.38;96.08
72857;BME280;62742;52.136;4.500;2023-08-31T05:09:24;100919.28;;;13.42;96.00
72857;BME280;62742;52.136;4.500;2023-08-31T05:11:51;100926.44;;;13.37;96.41
72857;BME280;62742;52.136;4.500;2023-08-31T05:14:17;100934.63;;;13.26;97.19
72857;BME280;62742;52.136;4.500;2023-08-31T05:16:44;100935.41;;;13.32;97.36
72857;BME280;62742;52.136;4.500;2023-08-31T05:19:13;100937.19;;;13.29;97.89
72857;BME280;62742;52.136;4.500;2023-08-31T05:21:40;100937.25;;;13.26;98.18
72857;BME280;62742;52.136;4.500;2023-08-31T05:24:07;100940.72;;;13.28;98.64
72857;BME280;62742;52.136;4.500;2023-08-31T05:26:34;100941.56;;;13.31;99.00
72857;BME280;62742;52.136;4.500;2023-08-31T05:29:00;100952.97;;;13.31;99.59
72857;BME280;62742;52.136;4.500;2023-08-31T05:31:27;100956.34;;;13.39;99.75
72857;BME280;62742;52.136;4.500;2023-08-31T05:33:53;100954.44;;;13.44;99.12
72857;BME280;62742;52.136;4.500;2023-08-31T05:36:20;100948.19;;;13.47;98.89
72857;BME280;62742;52.136;4.500;2023-08-31T05:38:46;100942.97;;;13.45;98.99
72857;BME280;62742;52.136;4.500;2023-08-31T05:41:13;100946.50;;;13.46;99.26
72857;BME280;62742;52.136;4.500;2023-08-31T05:43:39;100949.94;;;13.48;99.46
72857;BME280;62742;52.136;4.500;2023-08-31T05:46:06;100958.56;;;13.55;100.00
72857;BME280;62742;52.136;4.500;2023-08-31T05:48:34;100951.25;;;13.64;99.84
72857;BME280;62742;52.136;4.500;2023-08-31T05:51:02;100953.75;;;13.71;99.81
72857;BME280;62742;52.136;4.500;2023-08-31T05:53:32;100959.72;;;13.77;99.71
72857;BME280;62742;52.136;4.500;2023-08-31T05:55:59;100963.41;;;13.72;99.85
72857;BME280;62742;52.136;4.500;2023-08-31T05:58:35;100963.22;;;13.78;100.00
72857;BME280;62742;52.136;4.500;2023-08-31T06:01:03;100962.44;;;13.74;100.00
72857;BME280;62742;52.136;4.500;2023-08-31T06:03:31;100968.59;;;13.75;100.00
72857;BME280;62742;52.136;4.500;2023-08-31T06:05:59;100974.75;;;13.75;100.00
72857;BME280;62742;52.136;4.500;2023-08-31T06:08:26;100970.34;;;13.76;100.00
72857;BME280;62742;52.136;4.500;2023-08-31T06:10:53;100979.06;;;13.78;100.00
72857;BME280;62742;52.136;4.500;2023-08-31T06:13:19;100976.47;;;13.76;100.00
72857;BME280;62742;52.136;4.500;2023-08-31T06:15:46;100978.94;;;13.84;100.00
72857;BME280;62742;52.136;4.500;2023-08-31T06:18:13;100982.34;;;13.88;99.82
72857;BME280;62742;52.136;4.500;2023-08-31T06:20:40;100984.75;;;13.95;99.45
72857;BME280;62742;52.136;4.500;2023-08-31T06:23:06;100978.47;;;14.01;98.88
72857;BME280;62742;52.136;4.500;2023-08-31T06:25:33;100989.94;;;14.00;98.78
72857;BME280;62742;52.136;4.500;2023-08-31T06:27:59;100985.34;;;14.07;98.65
72857;BME280;62742;52.136;4.500;2023-08-31T06:30:26;100991.44;;;14.09;98.28
72857;BME280;62742;52.136;4.500;2023-08-31T06:32:52;100985.44;;;14.03;97.43
72857;BME280;62742;52.136;4.500;2023-08-31T06:35:19;100982.75;;;14.05;97.29
72857;BME280;62742;52.136;4.500;2023-08-31T06:37:45;100983.28;;;14.18;96.90
72857;BME280;62742;52.136;4.500;2023-08-31T06:40:12;100988.59;;;14.16;95.51
72857;BME280;62742;52.136;4.500;2023-08-31T06:42:39;100995.84;;;14.10;95.91
72857;BME280;62742;52.136;4.500;2023-08-31T06:45:07;100998.63;;;14.03;95.11
72857;BME280;62742;52.136;4.500;2023-08-31T06:47:34;100991.63;;;14.02;94.28
72857;BME280;62742;52.136;4.500;2023-08-31T06:50:01;100996.00;;;14.03;94.82
72857;BME280;62742;52.136;4.500;2023-08-31T06:52:29;101004.06;;;14.30;95.28
72857;BME280;62742;52.136;4.500;2023-08-31T06:54:56;100998.22;;;15.08;92.63
72857;BME280;62742;52.136;4.500;2023-08-31T06:57:23;101005.84;;;15.71;88.07
72857;BME280;62742;52.136;4.500;2023-08-31T06:59:50;101003.09;;;15.76;86.04
72857;BME280;62742;52.136;4.500;2023-08-31T07:02:17;100999.78;;;16.19;84.70
72857;BME280;62742;52.136;4.500;2023-08-31T07:04:50;100996.25;;;16.66;82.50
72857;BME280;62742;52.136;4.500;2023-08-31T07:07:18;101001.75;;;16.85;79.18
72857;BME280;62742;52.136;4.500;2023-08-31T07:09:46;101003.38;;;16.66;80.04
72857;BME280;62742;52.136;4.500;2023-08-31T07:12:14;101005.38;;;17.05;79.54
72857;BME280;62742;52.136;4.500;2023-08-31T07:14:41;101005.78;;;17.60;77.78
72857;BME280;62742;52.136;4.500;2023-08-31T07:17:07;101008.31;;;17.63;76.42
72857;BME280;62742;52.136;4.500;2023-08-31T07:19:37;101012.25;;;17.75;75.61
72857;BME280;62742;52.136;4.500;2023-08-31T07:22:04;101007.06;;;18.13;75.67
72857;BME280;62742;52.136;4.500;2023-08-31T07:24:32;101006.13;;;18.35;73.27
72857;BME280;62742;52.136;4.500;2023-08-31T07:27:04;101011.94;;;18.43;72.19
72857;BME280;62742;52.136;4.500;2023-08-31T07:29:31;101016.41;;;18.80;71.37
72857;BME280;62742;52.136;4.500;2023-08-31T07:31:58;101018.38;;;19.15;70.80
72857;BME280;62742;52.136;4.500;2023-08-31T07:34:24;101011.56;;;19.27;69.57
72857;BME280;62742;52.136;4.500;2023-08-31T07:36:51;101022.63;;;19.36;67.89
72857;BME280;62742;52.136;4.500;2023-08-31T07:39:17;101018.22;;;18.99;65.37
72857;BME280;62742;52.136;4.500;2023-08-31T07:41:44;101017.94;;;19.05;65.11
72857;BME280;62742;52.136;4.500;2023-08-31T07:44:10;101024.91;;;19.08;67.29
72857;BME280;62742;52.136;4.500;2023-08-31T07:46:37;101020.94;;;18.78;65.57
72857;BME280;62742;52.136;4.500;2023-08-31T07:49:03;101029.66;;;19.20;67.77
72857;BME280;62742;52.136;4.500;2023-08-31T07:51:30;101028.38;;;19.46;65.77
72857;BME280;62742;52.136;4.500;2023-08-31T07:53:57;101039.03;;;19.46;66.42
72857;BME280;62742;52.136;4.500;2023-08-31T07:56:23;101031.97;;;19.45;66.08
72857;BME280;62742;52.136;4.500;2023-08-31T07:58:50;101032.97;;;19.06;64.04
72857;BME280;62742;52.136;4.500;2023-08-31T08:01:16;101037.38;;;19.07;65.60
72857;BME280;62742;52.136;4.500;2023-08-31T08:03:43;101044.56;;;19.24;66.92
72857;BME280;62742;52.136;4.500;2023-08-31T08:06:10;101042.25;;;19.35;65.29
72857;BME280;62742;52.136;4.500;2023-08-31T08:08:36;101041.25;;;19.73;65.73
72857;BME280;62742;52.136;4.500;2023-08-31T08:11:04;101044.41;;;19.81;65.53
72857;BME280;62742;52.136;4.500;2023-08-31T08:13:31;101051.63;;;20.14;64.12
72857;BME280;62742;52.136;4.500;2023-08-31T08:15:57;101051.38;;;20.18;62.29
72857;BME280;62742;52.136;4.500;2023-08-31T08:18:24;101047.69;;;20.21;62.65
72857;BME280;62742;52.136;4.500;2023-08-31T08:20:50;101057.13;;;20.11;60.63
72857;BME280;62742;52.136;4.500;2023-08-31T08:23:17;101050.84;;;19.94;62.44
72857;BME280;62742;52.136;4.500;2023-08-31T08:25:43;101055.00;;;20.00;62.68
72857;BME280;62742;52.136;4.500;2023-08-31T08:28:10;101064.97;;;19.96;62.63
72857;BME280;62742;52.136;4.500;2023-08-31T08:30:36;101057.38;;;19.89;59.86
72857;BME280;62742;52.136;4.500;2023-08-31T08:33:04;101061.13;;;20.02;60.76
72857;BME280;62742;52.136;4.500;2023-08-31T08:35:31;101068.09;;;19.87;62.06
72857;BME280;62742;52.136;4.500;2023-08-31T08:37:57;101064.41;;;19.90;60.44
72857;BME280;62742;52.136;4.500;2023-08-31T08:40:24;101075.72;;;19.95;61.73
72857;BME280;62742;52.136;4.500;2023-08-31T08:42:52;101071.78;;;20.20;60.29
72857;BME280;62742;52.136;4.500;2023-08-31T08:45:24;101062.91;;;20.70;59.14
72857;BME280;62742;52.136;4.500;2023-08-31T08:47:52;101077.91;;;20.72;59.54
72857;BME280;62742;52.136;4.500;2023-08-31T08:50:19;101071.97;;;20.83;57.99
72857;BME280;62742;52.136;4.500;2023-08-31T08:52:47;101078.06;;;20.69;60.47
72857;BME280;62742;52.136;4.500;2023-08-31T08:55:14;101088.53;;;20.57;59.54
72857;BME280;62742;52.136;4.500;2023-08-31T08:57:41;101087.75;;;20.88;61.05
72857;BME280;62742;52.136;4.500;2023-08-31T09:00:08;101085.88;;;20.39;56.33
72857;BME280;62742;52.136;4.500;2023-08-31T09:02:36;101083.66;;;20.47;59.85
72857;BME280;62742;52.136;4.500;2023-08-31T09:05:03;101086.19;;;20.84;58.79
72857;BME280;62742;52.136;4.500;2023-08-31T09:07:30;101089.28;;;20.76;58.90
72857;BME280;62742;52.136;4.500;2023-08-31T09:10:05;101085.31;;;20.99;56.66
72857;BME280;62742;52.136;4.500;2023-08-31T09:12:36;101085.78;;;21.07;57.73
72857;BME280;62742;52.136;4.500;2023-08-31T09:15:04;101094.22;;;21.00;57.79
72857;BME280;62742;52.136;4.500;2023-08-31T09:17:38;101095.50;;;20.59;54.86
72857;BME280;62742;52.136;4.500;2023-08-31T09:20:08;101096.97;;;20.98;56.74
72857;BME280;62742;52.136;4.500;2023-08-31T09:22:35;101097.66;;;20.86;56.83
72857;BME280;62742;52.136;4.500;2023-08-31T09:25:02;101099.03;;;20.93;55.89
72857;BME280;62742;52.136;4.500;2023-08-31T09:27:29;101103.22;;;21.15;54.38
72857;BME280;62742;52.136;4.500;2023-08-31T09:29:57;101107.13;;;20.76;53.69
72857;BME280;62742;52.136;4.500;2023-08-31T09:32:24;101103.66;;;20.56;54.01
72857;BME280;62742;52.136;4.500;2023-08-31T09:34:50;101104.00;;;20.32;54.11
72857;BME280;62742;52.136;4.500;2023-08-31T09:37:18;101105.00;;;20.65;55.51
72857;BME280;62742;52.136;4.500;2023-08-31T09:39:45;101107.38;;;20.87;54.92
72857;BME280;62742;52.136;4.500;2023-08-31T09:42:11;101103.88;;;21.02;54.10
72857;BME280;62742;52.136;4.500;2023-08-31T09:44:44;101101.13;;;21.36;55.44
72857;BME280;62742;52.136;4.500;2023-08-31T09:47:13;101112.25;;;21.60;52.95
72857;BME280;62742;52.136;4.500;2023-08-31T09:49:41;101096.16;;;21.76;51.39
72857;BME280;62742;52.136;4.500;2023-08-31T09:52:09;101105.53;;;21.21;51.87
72857;BME280;62742;52.136;4.500;2023-08-31T09:54:37;101106.09;;;21.42;53.26
72857;BME280;62742;52.136;4.500;2023-08-31T09:57:06;101114.56;;;21.02;54.28
72857;BME280;62742;52.136;4.500;2023-08-31T09:59:32;101105.25;;;21.41;54.38
72857;BME280;62742;52.136;4.500;2023-08-31T10:02:00;101115.88;;;21.59;52.71
72857;BME280;62742;52.136;4.500;2023-08-31T10:04:29;101118.16;;;21.51;51.70
72857;BME280;62742;52.136;4.500;2023-08-31T10:06:58;101111.31;;;21.29;52.12
72857;BME280;62742;52.136;4.500;2023-08-31T10:09:26;101121.28;;;21.41;52.26
72857;BME280;62742;52.136;4.500;2023-08-31T10:11:56;101112.84;;;21.65;47.49
72857;BME280;62742;52.136;4.500;2023-08-31T10:14:24;101124.44;;;21.50;51.65
72857;BME280;62742;52.136;4.500;2023-08-31T10:16:52;101117.13;;;21.83;51.26
72857;BME280;62742;52.136;4.500;2023-08-31T10:19:22;101122.19;;;22.18;50.28
72857;BME280;62742;52.136;4.500;2023-08-31T10:21:49;101109.31;;;21.95;50.15
72857;BME280;62742;52.136;4.500;2023-08-31T10:24:16;101115.19;;;21.55;50.02
72857;BME280;62742;52.136;4.500;2023-08-31T10:26:42;101121.81;;;21.80;50.44
72857;BME280;62742;52.136;4.500;2023-08-31T10:29:26;101111.66;;;22.01;49.45
72857;BME280;62742;52.136;4.500;2023-08-31T10:32:00;101119.69;;;22.15;50.91
72857;BME280;62742;52.136;4.500;2023-08-31T10:34:35;101131.94;;;22.35;48.81
72857;BME280;62742;52.136;4.500;2023-08-31T10:37:22;101125.75;;;22.78;49.57
72857;BME280;62742;52.136;4.500;2023-08-31T10:39:49;101132.91;;;22.49;48.54
72857;BME280;62742;52.136;4.500;2023-08-31T10:42:32;101122.69;;;22.55;49.25
72857;BME280;62742;52.136;4.500;2023-08-31T10:45:05;101129.00;;;22.54;48.92
72857;BME280;62742;52.136;4.500;2023-08-31T10:47:42;101121.81;;;22.40;49.64
72857;BME280;62742;52.136;4.500;2023-08-31T10:50:20;101125.84;;;22.62;48.27
72857;BME280;62742;52.136;4.500;2023-08-31T10:52:48;101121.16;;;22.66;50.24
72857;BME280;62742;52.136;4.500;2023-08-31T10:55:15;101128.34;;;22.79;49.41
72857;BME280;62742;52.136;4.500;2023-08-31T10:57:42;101129.00;;;22.54;49.30
72857;BME280;62742;52.136;4.500;2023-08-31T11:00:09;101126.56;;;22.35;48.51
72857;BME280;62742;52.136;4.500;2023-08-31T11:02:41;101119.59;;;22.33;50.62
72857;BME280;62742;52.136;4.500;2023-08-31T11:05:18;101133.69;;;22.65;49.33
72857;BME280;62742;52.136;4.500;2023-08-31T11:07:46;101130.94;;;22.67;49.11
72857;BME280;62742;52.136;4.500;2023-08-31T11:10:23;101125.84;;;22.76;49.45
72857;BME280;62742;52.136;4.500;2023-08-31T11:12:52;101126.72;;;23.06;50.26
72857;BME280;62742;52.136;4.500;2023-08-31T11:15:22;101125.00;;;22.62;48.31
72857;BME280;62742;52.136;4.500;2023-08-31T11:17:50;101132.19;;;22.31;48.47
72857;BME280;62742;52.136;4.500;2023-08-31T11:20:21;101134.25;;;22.41;50.51
72857;BME280;62742;52.136;4.500;2023-08-31T11:22:50;101134.34;;;22.54;47.29
72857;BME280;62742;52.136;4.500;2023-08-31T11:25:21;101137.22;;;22.66;49.67
72857;BME280;62742;52.136;4.500;2023-08-31T11:28:08;101132.19;;;22.75;49.45
72857;BME280;62742;52.136;4.500;2023-08-31T11:30:36;101135.31;;;22.68;49.84
72857;BME280;62742;52.136;4.500;2023-08-31T11:33:04;101133.28;;;22.12;49.51
72857;BME280;62742;52.136;4.500;2023-08-31T11:35:36;101127.06;;;22.28;51.04
72857;BME280;62742;52.136;4.500;2023-08-31T11:38:07;101140.31;;;22.74;51.28
72857;BME280;62742;52.136;4.500;2023-08-31T11:40:33;101137.63;;;22.88;49.77
72857;BME280;62742;52.136;4.500;2023-08-31T11:43:02;101144.59;;;23.05;48.03
72857;BME280;62742;52.136;4.500;2023-08-31T11:45:32;101136.94;;;22.56;45.89
72857;BME280;62742;52.136;4.500;2023-08-31T11:47:59;101132.31;;;22.29;47.39
72857;BME280;62742;52.136;4.500;2023-08-31T11:50:27;101143.41;;;22.07;49.52
72857;BME280;62742;52.136;4.500;2023-08-31T11:52:54;101134.00;;;22.00;48.31
72857;BME280;62742;52.136;4.500;2023-08-31T11:55:21;101130.66;;;21.96;49.53
72857;BME280;62742;52.136;4.500;2023-08-31T11:57:50;101127.84;;;21.83;48.91
72857;BME280;62742;52.136;4.500;2023-08-31T12:00:19;101128.03;;;22.11;49.26
72857;BME280;62742;52.136;4.500;2023-08-31T12:03:00;101131.06;;;22.35;48.70
72857;BME280;62742;52.136;4.500;2023-08-31T12:05:28;101135.31;;;22.53;49.58
72857;BME280;62742;52.136;4.500;2023-08-31T12:07:56;101138.09;;;22.66;50.40
72857;BME280;62742;52.136;4.500;2023-08-31T12:10:25;101133.16;;;21.99;48.78
72857;BME280;62742;52.136;4.500;2023-08-31T12:12:52;101136.66;;;22.46;50.86
72857;BME280;62742;52.136;4.500;2023-08-31T12:15:21;101145.66;;;22.74;48.98
72857;BME280;62742;52.136;4.500;2023-08-31T12:17:49;101137.63;;;23.03;47.30
72857;BME280;62742;52.136;4.500;2023-08-31T12:20:25;101140.97;;;22.92;46.85
72857;BME280;62742;52.136;4.500;2023-08-31T12:22:55;101143.63;;;22.63;48.41
72857;BME280;62742;52.136;4.500;2023-08-31T12:25:22;101141.66;;;22.67;49.50
72857;BME280;62742;52.136;4.500;2023-08-31T12:27:49;101130.50;;;22.30;48.33
72857;BME280;62742;52.136;4.500;2023-08-31T12:30:18;101127.47;;;22.93;49.85
72857;BME280;62742;52.136;4.500;2023-08-31T12:32:45;101124.16;;;23.46;47.85
72857;BME280;62742;52.136;4.500;2023-08-31T12:35:12;101127.66;;;23.33;47.13
72857;BME280;62742;52.136;4.500;2023-08-31T12:37:40;101126.38;;;23.39;47.04
72857;BME280;62742;52.136;4.500;2023-08-31T12:40:07;101127.88;;;23.70;49.23
72857;BME280;62742;52.136;4.500;2023-08-31T12:42:36;101130.78;;;23.95;45.90
72857;BME280;62742;52.136;4.500;2023-08-31T12:45:02;101137.22;;;23.92;46.87
72857;BME280;62742;52.136;4.500;2023-08-31T12:47:31;101135.72;;;23.88;45.77
72857;BME280;62742;52.136;4.500;2023-08-31T12:49:58;101131.69;;;23.81;46.46
72857;BME280;62742;52.136;4.500;2023-08-31T12:52:24;101135.25;;;23.54;46.24
72857;BME280;62742;52.136;4.500;2023-08-31T12:54:51;101141.25;;;23.30;46.14
72857;BME280;62742;52.136;4.500;2023-08-31T12:57:17;101136.50;;;23.07;44.76
72857;BME280;62742;52.136;4.500;2023-08-31T12:59:44;101139.22;;;23.05;46.79
72857;BME280;62742;52.136;4.500;2023-08-31T13:02:10;101134.66;;;23.22;48.81
72857;BME280;62742;52.136;4.500;2023-08-31T13:04:38;101135.88;;;23.30;45.99
72857;BME280;62742;52.136;4.500;2023-08-31T13:07:04;101133.19;;;23.30;44.42